Time;durP1;ratioP1;P1;durP2;ratioP2;P2;SDS_P1;SDS_P2;PMS_P1;PMS_P2;Temp;Humidity;BMP_temperature;BMP_pressure;BME280_temperature;BME280_humidity;BME280_pressure;Samples;Min_cycle;Max_cycle;Signal;HPM_P1;HPM_P2
2022/01/23 00:03:26;;;;;;;12.52;5.68;;;;;;;-0.12;100.00;99817.50;10420621;28;20053;-77
2022/01/23 00:08:27;;;;;;;31.48;6.13;;;;;;;0.65;100.00;99912.75;10418356;28;20037;-77
2022/01/23 00:13:35;;;;;;;12.10;5.88;;;;;;;0.06;100.00;99812.69;10418119;28;20043;-77
2022/01/23 00:18:36;;;;;;;16.40;5.85;;;;;;;0.06;100.00;99789.19;10417681;28;20076;-78
2022/01/23 00:34:00;;;;;;;28.33;6.53;;;;;;;1.04;100.00;99917.69;10418689;28;20124;-77
2022/01/23 00:39:01;;;;;;;18.48;6.70;;;;;;;1.00;100.00;99877.88;10416634;28;20119;-77
2022/01/23 00:44:02;;;;;;;43.20;7.20;;;;;;;0.94;100.00;99890.59;10416605;28;20570;-77
2022/01/23 00:54:11;;;;;;;34.25;6.57;;;;;;;-0.08;100.00;99731.00;10416519;28;20083;-78
2022/01/23 00:59:11;;;;;;;37.42;5.72;;;;;;;0.92;100.00;99903.75;10416705;28;20493;-77
2022/01/23 01:04:12;;;;;;;50.92;6.57;;;;;;;-0.52;100.00;99698.59;10416304;28;20127;-77
2022/01/23 01:09:14;;;;;;;59.08;6.68;;;;;;;-0.42;100.00;99726.63;10416170;28;20416;-77
2022/01/23 01:30:40;;;;;;;24.65;6.13;;;;;;;-0.20;100.00;99746.78;10415926;28;20132;-77
2022/01/23 01:35:49;;;;;;;19.85;6.18;;;;;;;0.25;100.00;99805.16;10414740;28;20041;-77
2022/01/23 01:40:50;;;;;;;18.80;5.57;;;;;;;-1.83;100.00;99467.50;10415353;28;20061;-77
2022/01/23 01:45:54;;;;;;;37.53;6.30;;;;;;;-0.15;100.00;99755.94;10413086;28;20052;-77
2022/01/23 01:50:56;;;;;;;18.83;5.80;;;;;;;-0.03;100.00;99790.72;10413721;28;20061;-77
2022/01/23 01:55:57;;;;;;;23.17;5.57;;;;;;;-0.20;100.00;99752.00;10415083;28;20128;-77
2022/01/23 02:01:02;;;;;;;34.67;6.85;;;;;;;0.76;100.00;99900.66;10413654;28;20048;-78
2022/01/23 02:11:44;;;;;;;18.50;5.38;;;;;;;-0.64;100.00;99676.03;10413972;28;20049;-77
2022/01/23 02:54:24;;;;;;;29.92;5.47;;;;;;;0.32;100.00;99827.25;10454349;28;20480;-78
2022/01/23 02:59:29;;;;;;;17.55;5.53;;;;;;;0.07;100.00;99791.72;10454079;28;20492;-78
2022/01/23 03:04:33;;;;;;;8.45;5.57;;;;;;;0.64;100.00;99895.41;10453788;28;20041;-77
2022/01/23 03:14:44;;;;;;;32.25;5.72;;;;;;;-0.21;100.00;99774.63;10453803;28;20515;-78
2022/01/23 03:25:35;;;;;;;38.03;15.88;;;;;;;0.27;100.00;99829.41;10453630;28;20044;-78
2022/01/23 03:30:50;;;;;;;27.50;6.63;;;;;;;-1.13;100.00;99609.22;10453212;28;20112;-78
2022/01/23 03:35:50;;;;;;;10.95;5.20;;;;;;;0.56;100.00;99884.69;10453973;28;20194;-77
2022/01/23 03:40:51;;;;;;;20.27;5.72;;;;;;;0.59;100.00;99875.78;10453619;28;20148;-78
2022/01/23 03:46:09;;;;;;;16.70;4.97;;;;;;;-0.71;100.00;99670.44;10436118;28;20049;-78
2022/01/23 03:51:11;;;;;;;25.48;6.03;;;;;;;-0.18;100.00;99750.06;10461355;28;20516;-78
2022/01/23 03:56:14;;;;;;;23.08;5.32;;;;;;;0.77;100.00;99877.00;10443446;28;20131;-78
2022/01/23 04:01:15;;;;;;;26.98;5.22;;;;;;;-0.19;100.00;99751.84;10460163;28;20113;-78
2022/01/23 04:06:15;;;;;;;20.50;4.85;;;;;;;0.73;100.00;99872.97;10459975;28;20200;-78
2022/01/23 04:11:16;;;;;;;15.73;5.15;;;;;;;0.52;100.00;99835.38;10459624;28;20171;-78
2022/01/23 05:09:07;;;;;;;14.90;3.80;;;;;;;-0.44;100.00;99660.69;10457328;28;20063;-80
2022/01/23 05:14:09;;;;;;;13.00;4.40;;;;;;;0.54;100.00;99821.25;10457575;28;20048;-80
2022/01/23 05:19:09;;;;;;;11.70;4.47;;;;;;;0.30;100.00;99745.56;10457737;28;20059;-80
2022/01/23 05:24:10;;;;;;;14.77;4.90;;;;;;;0.48;100.00;99763.38;10457505;28;20043;-79
2022/01/23 05:29:13;;;;;;;8.52;4.40;;;;;;;-0.79;100.00;99552.81;10456337;28;20412;-79
2022/01/23 05:34:14;;;;;;;13.15;4.38;;;;;;;0.70;100.00;99791.34;10456169;28;20078;-79
2022/01/23 05:39:18;;;;;;;19.65;4.00;;;;;;;-0.06;100.00;99657.78;10457215;28;20075;-79
2022/01/23 05:44:19;;;;;;;12.50;4.10;;;;;;;1.08;100.00;99835.44;10475067;28;20066;-80
2022/01/23 05:49:21;;;;;;;13.75;4.32;;;;;;;1.04;100.00;99860.16;10497269;28;20040;-81
2022/01/23 05:54:22;;;;;;;11.32;4.15;;;;;;;-0.14;100.00;99665.38;10494482;28;20048;-82
2022/01/23 05:59:23;;;;;;;27.92;3.90;;;;;;;1.09;100.00;99865.88;10479082;28;20181;-78
2022/01/23 06:04:25;;;;;;;10.20;3.67;;;;;;;0.12;100.00;99702.53;10496472;28;20032;-77
2022/01/23 06:09:27;;;;;;;12.73;4.68;;;;;;;1.03;100.00;99837.56;10496063;28;20510;-81
2022/01/23 06:14:28;;;;;;;18.17;4.90;;;;;;;1.05;100.00;99846.97;10496549;28;20535;-75
2022/01/23 06:19:29;;;;;;;15.68;4.22;;;;;;;1.02;100.00;99838.53;10477402;28;20104;-79
2022/01/23 06:24:31;;;;;;;20.15;4.40;;;;;;;0.72;100.00;99761.50;10496698;28;20044;-79
2022/01/23 06:29:33;;;;;;;20.27;4.50;;;;;;;-0.22;100.00;99576.38;10496528;28;20580;-79
2022/01/23 06:34:34;;;;;;;19.08;3.95;;;;;;;1.02;100.00;99781.00;10496610;28;20040;-79
2022/01/23 06:39:35;;;;;;;17.17;5.32;;;;;;;0.27;100.00;99684.88;10495723;28;20060;-79
2022/01/23 06:44:37;;;;;;;16.40;4.30;;;;;;;0.71;100.00;99744.16;10478161;28;20043;-79
2022/01/23 06:49:37;;;;;;;21.73;4.60;;;;;;;0.68;100.00;99745.22;10497426;28;20047;-79
2022/01/23 06:54:38;;;;;;;44.22;5.07;;;;;;;1.20;100.00;99844.06;10495492;28;20047;-79
2022/01/23 06:59:40;;;;;;;18.65;4.38;;;;;;;1.22;100.00;99868.34;10495084;28;20033;-79
2022/01/23 07:04:41;;;;;;;24.40;4.97;;;;;;;1.26;100.00;99847.06;10494878;28;20043;-79
2022/01/23 07:09:41;;;;;;;16.70;4.78;;;;;;;0.93;100.00;99784.28;10495595;28;20553;-79
2022/01/23 07:14:42;;;;;;;13.20;4.90;;;;;;;0.96;100.00;99804.97;10493815;28;20048;-78
2022/01/23 07:19:43;;;;;;;14.40;4.93;;;;;;;1.18;100.00;99830.31;10472864;28;20080;-78
2022/01/23 07:24:44;;;;;;;20.92;5.00;;;;;;;-0.13;100.00;99612.22;10502514;28;20097;-79
2022/01/23 07:29:47;;;;;;;166.98;8.43;;;;;;;1.55;100.00;99870.91;10501339;28;20047;-79
2022/01/23 07:34:48;;;;;;;89.65;7.07;;;;;;;1.46;100.00;99839.41;10427415;28;20093;-78
2022/01/23 07:39:49;;;;;;;6.45;4.28;;;;;;;0.90;100.00;99748.78;10542897;28;20124;-74
2022/01/23 07:44:50;;;;;;;15.18;4.75;;;;;;;0.64;100.00;99735.13;10537935;28;20089;-75
2022/01/23 07:49:51;;;;;;;9.70;4.90;;;;;;;1.47;100.00;99885.59;10538517;28;20043;-73
2022/01/23 07:54:52;;;;;;;20.48;5.20;;;;;;;1.34;100.00;99835.97;10539950;28;20040;-75
2022/01/23 07:59:52;;;;;;;16.17;4.75;;;;;;;1.20;100.00;99791.75;10537251;28;20047;-77
2022/01/23 08:04:53;;;;;;;18.48;4.97;;;;;;;1.14;100.00;99777.41;10540312;28;20530;-78
2022/01/23 08:09:56;;;;;;;10.93;5.03;;;;;;;1.76;100.00;99871.00;10543043;28;20398;-78
2022/01/23 08:14:58;;;;;;;25.30;5.47;;;;;;;0.19;100.00;99601.91;10542519;28;20487;-75
2022/01/23 08:20:01;;;;;;;26.05;7.20;;;;;;;1.87;100.00;99858.84;10541249;28;20050;-75
2022/01/23 08:25:02;;;;;;;12.45;5.10;;;;;;;1.76;100.00;99841.34;10542119;28;20051;-77
2022/01/23 08:30:04;;;;;;;10.23;4.43;;;;;;;1.20;100.00;99719.34;10541659;28;20093;-76
2022/01/23 08:35:06;;;;;;;19.48;5.28;;;;;;;1.97;100.00;99841.41;10541995;28;20392;-80
2022/01/23 08:45:33;;;;;;;12.93;5.10;;;;;;;1.19;100.00;99717.66;10512937;28;20067;-77
2022/01/23 08:50:34;;;;;;;20.38;5.28;;;;;;;1.60;100.00;99768.47;10541379;28;20051;-77
2022/01/23 08:55:35;;;;;;;12.95;5.57;;;;;;;1.44;100.00;99740.09;10541347;28;20036;-76
2022/01/23 09:00:36;;;;;;;11.18;5.57;;;;;;;1.02;100.00;99652.81;10532181;28;20052;-75
2022/01/23 09:05:36;;;;;;;9.63;5.28;;;;;;;0.68;100.00;99570.06;10540547;28;20085;-77
2022/01/23 09:10:51;;;;;;;32.53;5.97;;;;;;;1.59;100.00;99724.94;10541090;28;20047;-77
2022/01/23 09:15:51;;;;;;;;;;;;;;;2.17;100.00;99777.72;10540441;28;20042;-77
2022/01/23 09:20:52;;;;;;;9.00;4.68;;;;;;;1.09;100.00;99620.81;10534816;28;20018;-78
2022/01/23 09:25:56;;;;;;;12.20;5.93;;;;;;;1.55;100.00;99707.78;10506954;28;20041;-77
2022/01/23 09:30:59;;;;;;;11.30;5.47;;;;;;;2.02;100.00;99760.66;10497493;28;20523;-77
2022/01/23 09:36:00;;;;;;;9.73;5.53;;;;;;;1.24;100.00;99618.72;10498098;28;20047;-77
2022/01/23 09:41:01;;;;;;;10.93;6.00;;;;;;;1.28;100.00;99625.34;10497374;28;20056;-77
2022/01/23 09:46:05;;;;;;;9.80;6.10;;;;;;;1.95;100.00;99718.44;10496804;28;20048;-77
2022/01/23 09:51:06;;;;;;;12.75;5.82;;;;;;;1.88;100.00;99687.63;10478849;28;20067;-77
2022/01/23 09:56:09;;;;;;;9.05;5.45;;;;;;;2.24;100.00;99742.19;10497350;28;20043;-76
2022/01/23 10:01:10;;;;;;;19.75;6.28;;;;;;;1.53;100.00;99629.41;10496908;28;20051;-77
2022/01/23 10:06:11;;;;;;;7.93;5.38;;;;;;;1.01;100.00;99551.75;10496799;28;20384;-76
2022/01/23 10:11:13;;;;;;;7.35;4.75;;;;;;;2.35;100.00;99735.19;10491003;28;20052;-77
2022/01/23 10:16:14;;;;;;;8.75;5.55;;;;;;;1.52;100.00;99582.41;10496625;28;20051;-77
2022/01/23 10:21:15;;;;;;;11.60;6.43;;;;;;;2.05;100.00;99687.03;10496589;28;20044;-77
2022/01/23 10:26:37;;;;;;;19.08;6.53;;;;;;;2.43;100.00;99757.19;10496249;28;20040;-77
2022/01/23 10:32:05;;;;;;;10.80;6.93;;;;;;;1.94;100.00;99681.88;10496406;28;20047;-77
2022/01/23 10:37:06;;;;;;;12.65;7.82;;;;;;;2.28;100.00;99738.34;10496268;28;20165;-77
2022/01/23 10:47:53;;;;;;;11.88;6.28;;;;;;;1.73;100.00;99689.72;10495514;28;20040;-76
2022/01/23 10:52:59;;;;;;;10.77;5.78;;;;;;;0.38;100.00;99481.91;10495778;28;20040;-75
2022/01/23 10:58:06;;;;;;;9.15;6.05;;;;;;;1.55;100.00;99685.06;10502598;28;20039;-77
2022/01/23 11:03:16;;;;;;;9.93;5.68;;;;;;;2.47;100.00;99826.72;10485863;28;20044;-74
2022/01/23 11:08:26;;;;;;;19.00;9.13;;;;;;;1.55;100.00;99679.00;10503148;28;20419;-75
2022/01/23 11:18:56;;;;;;;16.50;10.32;;;;;;;2.44;100.00;99844.53;10538500;28;20048;-72
2022/01/23 11:23:57;;;;;;;11.83;7.97;;;;;;;2.29;100.00;99797.66;10544412;28;20051;-75
2022/01/23 11:29:08;;;;;;;12.75;7.18;;;;;;;2.38;100.00;99797.84;10521567;28;20039;-77
2022/01/23 11:34:12;;;;;;;10.60;7.30;;;;;;;0.55;100.00;99511.91;10531906;28;20071;-77
2022/01/23 11:39:28;;;;;;;77.97;55.27;;;;;;;1.53;100.00;99660.00;10518636;28;20604;-77
2022/01/23 11:51:03;;;;;;;14.90;9.65;;;;;;;2.59;100.00;99821.44;10502253;28;20415;-77
2022/01/23 11:56:23;;;;;;;23.52;15.23;;;;;;;2.52;100.00;99826.38;10502055;28;20041;-76
2022/01/23 12:01:26;;;;;;;24.42;15.60;;;;;;;2.04;100.00;99741.22;10527843;28;20043;-76
2022/01/23 12:06:26;;;;;;;9.90;6.35;;;;;;;2.34;100.00;99781.56;10538983;28;20040;-76
2022/01/23 12:11:39;;;;;;;51.45;28.25;;;;;;;2.54;100.00;99815.72;10540178;28;20039;-76
2022/01/23 12:17:28;;;;;;;27.63;14.63;;;;;;;2.55;100.00;99822.66;10522588;28;20048;-75
2022/01/23 12:22:35;;;;;;;44.28;21.95;;;;;;;2.31;99.96;99800.16;10524127;28;20051;-75
2022/01/23 12:27:36;;;;;;;44.45;20.33;;;;;;;2.00;100.00;99757.31;10541707;28;20127;-75
2022/01/23 12:32:37;;;;;;;11.13;7.50;;;;;;;2.48;100.00;99852.00;10541854;28;20055;-75
2022/01/23 12:37:58;;;;;;;13.68;8.98;;;;;;;2.59;100.00;99850.28;10539203;28;20510;-75
2022/01/23 12:43:08;;;;;;;18.25;11.65;;;;;;;1.67;99.95;99701.53;10537187;28;20073;-75
2022/01/23 12:48:30;;;;;;;12.25;8.23;;;;;;;1.65;100.00;99700.84;10522705;28;20046;-75
2022/01/23 12:53:41;;;;;;;17.10;10.30;;;;;;;2.50;100.00;99836.13;10539447;28;20495;-75
2022/01/23 12:58:50;;;;;;;19.55;8.98;;;;;;;2.00;100.00;99760.75;10537127;28;20031;-76
2022/01/23 13:03:56;;;;;;;13.75;6.88;;;;;;;2.49;99.96;99829.25;10540104;28;20115;-75
2022/01/23 13:09:26;;;;;;;9.38;6.13;;;;;;;2.54;99.91;99832.28;10536541;28;20047;-75
2022/01/23 13:31:38;;;;;;;9.40;6.07;;;;;;;1.75;99.08;99703.53;10537793;28;20015;-75
2022/01/23 13:36:53;;;;;;;12.07;7.50;;;;;;;2.36;99.49;99803.19;10537495;28;20047;-74
2022/01/23 13:52:55;;;;;;;16.50;10.80;;;;;;;2.23;100.00;99819.13;10535638;28;20035;-76
2022/01/23 14:03:15;;;;;;;10.90;6.22;;;;;;;2.15;99.86;99857.41;10535460;28;20040;-76
2022/01/23 14:08:16;;;;;;;10.77;6.22;;;;;;;1.81;99.90;99808.59;10537581;28;20054;-76
2022/01/23 14:13:19;;;;;;;9.43;5.60;;;;;;;2.20;100.00;99853.44;10537319;28;20093;-76
2022/01/23 14:18:29;;;;;;;8.43;5.57;;;;;;;2.21;99.96;99860.34;10537221;28;20086;-76
2022/01/23 14:23:31;;;;;;;10.40;5.80;;;;;;;2.14;99.99;99835.63;10536886;28;20126;-76
2022/01/23 14:28:42;;;;;;;9.98;5.72;;;;;;;2.19;100.00;99837.88;10517576;28;20554;-75
2022/01/23 14:33:44;;;;;;;9.57;6.20;;;;;;;1.31;99.87;99714.06;10537096;28;20572;-75
2022/01/23 14:38:56;;;;;;;9.45;5.60;;;;;;;2.18;100.00;99836.19;10537275;28;20095;-75
2022/01/23 14:43:59;;;;;;;15.30;8.57;;;;;;;1.67;99.97;99745.22;10536995;28;20131;-75
2022/01/23 14:49:09;;;;;;;10.82;7.55;;;;;;;0.46;99.35;99593.66;10528151;28;20051;-75
2022/01/23 14:54:10;;;;;;;10.85;7.90;;;;;;;1.50;99.45;99780.66;10536454;28;20044;-76
2022/01/23 14:59:12;;;;;;;9.93;7.03;;;;;;;1.14;99.87;99753.84;10518047;28;20036;-75
2022/01/23 15:04:15;;;;;;;9.75;5.50;;;;;;;2.05;99.67;99909.72;10536176;28;20377;-75
2022/01/23 15:09:19;;;;;;;9.43;6.18;;;;;;;1.98;100.00;99891.06;10517170;28;20036;-76
2022/01/23 15:14:20;;;;;;;12.07;7.97;;;;;;;0.82;100.00;99699.69;10535541;28;20054;-76
2022/01/23 15:19:21;;;;;;;16.00;9.98;;;;;;;1.26;100.00;99760.72;10534759;28;20044;-76
2022/01/23 15:24:22;;;;;;;48.33;28.60;;;;;;;1.57;100.00;99790.47;10534131;28;20032;-76
2022/01/23 15:29:23;;;;;;;23.33;13.90;;;;;;;1.97;100.00;99883.31;10534251;28;20483;-76
2022/01/23 15:34:24;;;;;;;13.00;8.73;;;;;;;0.49;99.95;99639.63;10533146;28;20067;-76
2022/01/23 15:39:26;;;;;;;9.82;6.22;;;;;;;1.24;99.90;99770.47;10534685;28;20166;-76
2022/01/23 15:44:27;;;;;;;10.07;5.70;;;;;;;0.18;99.96;99587.16;10538159;28;20044;-76
2022/01/23 15:49:28;;;;;;;9.18;5.20;;;;;;;1.03;99.89;99723.31;10536940;28;20135;-76
2022/01/23 15:54:29;;;;;;;7.45;5.68;;;;;;;1.92;100.00;99899.41;10542368;28;20127;-76
2022/01/23 15:59:30;;;;;;;8.82;5.63;;;;;;;1.59;99.81;99837.50;10539959;28;21350;-77
2022/01/23 16:04:34;;;;;;;11.95;7.93;;;;;;;1.53;100.00;99846.66;10537922;28;20537;-78
2022/01/23 16:09:34;;;;;;;11.32;5.72;;;;;;;0.48;99.71;99695.44;10544919;28;20047;-78
2022/01/23 16:14:35;;;;;;;8.93;5.93;;;;;;;0.83;99.77;99748.41;10543259;28;20063;-78
2022/01/23 16:19:36;;;;;;;11.57;7.78;;;;;;;1.71;100.00;99920.31;10542387;28;20050;-78
2022/01/23 16:24:37;;;;;;;12.05;7.20;;;;;;;1.22;100.00;99843.00;10542742;28;20066;-77
2022/01/23 16:29:38;;;;;;;8.82;5.90;;;;;;;-0.31;99.96;99623.09;10542342;28;20042;-77
2022/01/23 16:34:39;;;;;;;7.75;4.28;;;;;;;-0.01;99.74;99668.72;10542269;28;20047;-77
2022/01/23 16:39:40;;;;;;;6.28;4.50;;;;;;;0.37;99.92;99730.25;10541938;28;20085;-78
2022/01/23 16:44:41;;;;;;;8.68;5.03;;;;;;;1.54;99.90;99957.44;10516279;28;20044;-78
2022/01/23 16:49:42;;;;;;;8.80;4.25;;;;;;;0.52;99.76;99775.28;10540126;28;20051;-78
2022/01/23 16:54:45;;;;;;;11.65;4.95;;;;;;;1.74;99.86;99964.56;10539209;28;20138;-80
2022/01/23 16:59:46;;;;;;;8.98;4.55;;;;;;;1.39;100.00;99928.06;10533282;28;20040;-79
2022/01/23 17:04:46;;;;;;;6.57;4.65;;;;;;;1.55;100.00;99906.75;10538868;28;20048;-80
2022/01/23 17:09:47;;;;;;;6.35;4.47;;;;;;;1.76;100.00;99923.38;10538541;28;20071;-79
2022/01/23 17:14:48;;;;;;;12.68;6.30;;;;;;;0.47;100.00;99722.53;10519813;28;20032;-79
2022/01/23 17:19:49;;;;;;;7.57;4.72;;;;;;;0.58;100.00;99744.28;10538382;28;20055;-79
2022/01/23 17:24:50;;;;;;;7.32;4.47;;;;;;;0.79;100.00;99773.16;10538026;28;20642;-79
2022/01/23 17:29:52;;;;;;;9.27;4.18;;;;;;;1.58;100.00;99909.94;10539478;28;20093;-78
2022/01/23 17:34:52;;;;;;;8.30;5.25;;;;;;;1.18;100.00;99838.97;10538519;28;20526;-79
2022/01/23 17:39:54;;;;;;;9.43;5.68;;;;;;;0.80;100.00;99826.25;10537846;28;20056;-79
2022/01/23 17:44:55;;;;;;;12.73;5.40;;;;;;;1.71;100.00;99943.03;10535356;28;20036;-79
2022/01/23 17:50:17;;;;;;;13.90;6.93;;;;;;;1.75;100.00;99900.75;10534126;28;20040;-79
2022/01/23 17:55:19;;;;;;;10.73;6.85;;;;;;;1.45;100.00;99879.63;10534466;28;20048;-80
2022/01/23 18:00:20;;;;;;;18.90;11.40;;;;;;;0.61;100.00;99727.53;10536955;28;20043;-79
2022/01/23 18:05:21;;;;;;;13.95;8.02;;;;;;;0.70;100.00;99775.66;10536124;28;20046;-80
2022/01/23 18:10:22;;;;;;;13.60;8.45;;;;;;;0.82;100.00;99785.16;10518164;28;20628;-80
2022/01/23 18:15:24;;;;;;;15.25;9.00;;;;;;;1.44;100.00;99870.13;10536742;28;20181;-86
2022/01/23 18:20:25;;;;;;;11.18;6.10;;;;;;;0.71;100.00;99759.00;10538583;28;20044;-80
2022/01/23 18:25:29;;;;;;;11.77;6.70;;;;;;;1.34;100.00;99857.75;10538416;28;20403;-78
2022/01/23 18:30:30;;;;;;;16.13;6.10;;;;;;;1.49;100.00;99899.38;10537220;28;20081;-79
2022/01/23 18:35:31;;;;;;;11.85;6.72;;;;;;;1.45;100.00;99890.09;10521790;28;20082;-80
2022/01/23 18:40:31;;;;;;;11.80;6.38;;;;;;;-0.20;100.00;99592.75;10495028;28;20466;-80
2022/01/23 18:45:33;;;;;;;18.33;7.68;;;;;;;1.06;100.00;99779.78;10496606;28;20570;-79
2022/01/23 18:50:36;;;;;;;13.50;7.70;;;;;;;1.03;100.00;99825.31;10495052;28;20044;-80
2022/01/23 18:55:38;;;;;;;14.07;7.03;;;;;;;1.08;100.00;99788.34;10495765;28;20040;-79
2022/01/23 19:00:44;;;;;;;12.77;6.80;;;;;;;0.87;100.00;99773.38;10495886;28;20487;-80
2022/01/23 19:06:00;;;;;;;10.85;6.70;;;;;;;1.81;100.00;99923.00;10495254;28;20119;-80
2022/01/23 19:11:01;;;;;;;13.63;6.43;;;;;;;-0.22;100.00;99602.47;10495428;28;20060;-80
2022/01/23 19:16:03;;;;;;;11.40;6.90;;;;;;;0.56;100.00;99727.03;10479028;28;20550;-80
2022/01/23 19:21:05;;;;;;;12.88;6.53;;;;;;;1.82;100.00;99941.25;10503671;28;20055;-80
2022/01/23 19:26:06;;;;;;;13.43;7.20;;;;;;;1.85;100.00;99944.56;10503166;28;20043;-80
2022/01/23 19:31:10;;;;;;;23.23;10.15;;;;;;;1.87;100.00;99953.13;10503129;28;20043;-80
2022/01/23 19:36:10;;;;;;;16.17;8.43;;;;;;;1.41;100.00;99888.66;10503030;28;20047;-79
2022/01/23 19:41:16;;;;;;;16.70;9.20;;;;;;;0.98;100.00;99821.38;10503451;28;20067;-80
2022/01/23 19:46:25;;;;;;;22.58;10.00;;;;;;;0.46;100.00;99753.06;10502455;28;20087;-80
2022/01/23 19:51:26;;;;;;;16.80;8.32;;;;;;;-0.09;100.00;99666.69;10483561;28;20424;-80
2022/01/23 19:56:27;;;;;;;18.42;8.50;;;;;;;1.29;100.00;99878.22;10502641;28;20044;-79
2022/01/23 20:01:28;;;;;;;15.57;7.72;;;;;;;0.79;100.00;99775.75;10502092;28;20048;-79
2022/01/23 20:06:29;;;;;;;15.27;8.10;;;;;;;0.33;100.00;99703.53;10502129;28;20037;-79
2022/01/23 20:16:44;;;;;;;28.08;9.77;;;;;;;1.56;100.00;99835.13;10500502;28;20038;-79
2022/01/23 20:21:50;;;;;;;17.02;8.60;;;;;;;1.69;100.00;99848.88;10482612;28;20044;-79
2022/01/23 20:27:01;;;;;;;16.50;8.75;;;;;;;1.92;100.00;99904.66;10499812;28;20119;-79
2022/01/23 20:32:03;;;;;;;27.63;9.40;;;;;;;1.43;100.00;99834.41;10500661;28;20037;-79
2022/01/23 20:37:04;;;;;;;39.22;10.63;;;;;;;0.56;100.00;99706.97;10500923;28;20044;-79
2022/01/23 20:42:06;;;;;;;26.05;9.43;;;;;;;1.34;100.00;99852.50;10499421;28;20428;-79
2022/01/23 20:47:07;;;;;;;38.38;11.13;;;;;;;1.83;100.00;99906.22;10499385;28;20037;-77
2022/01/23 20:52:24;;;;;;;36.85;12.15;;;;;;;1.85;100.00;99928.84;10499904;28;20040;-77
2022/01/23 20:57:25;;;;;;;36.28;13.13;;;;;;;1.61;100.00;99919.34;10541185;28;20036;-77
2022/01/23 21:02:26;;;;;;;21.10;10.88;;;;;;;0.18;100.00;99670.72;10540712;28;20044;-78
2022/01/23 21:07:27;;;;;;;22.90;11.38;;;;;;;1.01;100.00;99871.69;10524717;28;20135;-78
2022/01/23 21:12:27;;;;;;;33.67;10.48;;;;;;;1.70;100.00;99928.25;10515207;28;20094;-78
2022/01/23 21:43:30;;;;;;;54.72;12.02;;;;;;;1.83;100.00;99911.47;10539703;28;20059;-77
2022/01/23 21:48:33;;;;;;;44.22;14.35;;;;;;;1.74;100.00;99967.19;10540520;28;20047;-77
2022/01/23 21:53:36;;;;;;;44.20;11.57;;;;;;;0.57;100.00;99784.44;10538883;28;20043;-78
2022/01/23 21:58:38;;;;;;;35.30;12.73;;;;;;;1.66;100.00;99945.19;10539622;28;20483;-78
2022/01/23 22:03:39;;;;;;;33.08;12.90;;;;;;;1.08;100.00;99869.44;10539058;28;20032;-78
2022/01/23 22:08:40;;;;;;;31.48;15.18;;;;;;;0.50;100.00;99767.53;10538916;28;20047;-78
2022/01/23 22:19:03;;;;;;;27.92;13.48;;;;;;;0.28;100.00;99751.84;10486186;28;20048;-79
2022/01/23 22:29:16;;;;;;;23.27;12.82;;;;;;;0.93;100.00;99876.69;10538249;28;20518;-79
2022/01/23 22:34:17;;;;;;;33.95;14.82;;;;;;;1.81;100.00;100038.25;10537457;28;20044;-78
2022/01/23 22:39:18;;;;;;;27.17;14.77;;;;;;;1.30;100.00;99941.84;10537192;28;20452;-78
2022/01/23 22:44:20;;;;;;;30.77;13.02;;;;;;;0.94;100.00;99853.97;10538735;28;20052;-78
2022/01/23 22:49:22;;;;;;;25.08;12.95;;;;;;;1.76;100.00;99991.44;10537702;28;20036;-78
2022/01/23 22:54:25;;;;;;;25.30;14.43;;;;;;;1.67;100.00;99938.97;10537875;28;20177;-78
2022/01/23 22:59:26;;;;;;;30.85;16.95;;;;;;;0.91;100.00;99803.56;10537162;28;20036;-78
2022/01/23 23:04:27;;;;;;;25.48;14.52;;;;;;;1.34;100.00;99870.00;10519715;28;20047;-78
2022/01/23 23:09:28;;;;;;;33.35;19.52;;;;;;;1.29;100.00;99851.22;10537460;28;20050;-78
2022/01/23 23:14:29;;;;;;;28.80;16.48;;;;;;;1.47;100.00;99912.59;10536614;28;20042;-78
2022/01/23 23:19:31;;;;;;;25.15;12.85;;;;;;;1.48;100.00;99957.91;10537135;28;20036;-78
2022/01/23 23:24:32;;;;;;;22.38;11.80;;;;;;;-0.55;100.00;99617.13;10518535;28;20491;-77
2022/01/23 23:29:33;;;;;;;19.05;11.23;;;;;;;1.11;100.00;99906.66;10537086;28;20135;-78
2022/01/23 23:34:33;;;;;;;16.48;10.30;;;;;;;1.86;100.00;100025.63;10536647;28;20044;-77
2022/01/23 23:39:45;;;;;;;19.10;11.77;;;;;;;1.73;100.00;100004.78;10536378;28;20066;-78
2022/01/23 23:44:55;;;;;;;19.02;12.00;;;;;;;0.05;100.00;99743.97;10536529;28;20059;-78
2022/01/23 23:49:56;;;;;;;20.85;12.57;;;;;;;1.01;100.00;99912.69;10536042;28;20036;-77
2022/01/23 23:54:57;;;;;;;19.90;11.68;;;;;;;1.26;100.00;99922.94;10536177;28;20043;-78
2022/01/23 23:59:57;;;;;;;19.02;11.80;;;;;;;1.81;100.00;100010.28;10536277;28;20039;-78
